createdAt,value
2018-09-27T00:00:28.349Z,15.23
2018-09-27T00:02:57.357Z,14.10
2018-09-27T00:05:26.345Z,15.20
2018-09-27T00:07:56.424Z,15.53
2018-09-27T00:10:25.371Z,16.83
2018-09-27T00:12:56.459Z,17.03
2018-09-27T00:15:25.399Z,16.40
2018-09-27T00:17:54.425Z,17.27
2018-09-27T00:20:23.408Z,18.27
2018-09-27T00:22:52.363Z,17.70
2018-09-27T00:25:21.341Z,16.97
2018-09-27T00:27:50.236Z,17.50
2018-09-27T00:30:19.171Z,17.33
2018-09-27T00:32:48.162Z,17.40
2018-09-27T00:35:17.220Z,16.77
2018-09-27T00:37:46.363Z,17.17
2018-09-27T00:40:15.411Z,16.07
2018-09-27T00:42:45.433Z,13.73
2018-09-27T00:45:14.536Z,13.33
2018-09-27T00:47:43.548Z,13.73
2018-09-27T00:50:12.576Z,13.80
2018-09-27T00:52:41.567Z,12.20
2018-09-27T00:55:10.625Z,13.37
2018-09-27T00:57:39.519Z,11.47
2018-09-27T01:00:08.967Z,12.17
2018-09-27T01:02:38.049Z,10.80
2018-09-27T01:05:07.192Z,11.43
2018-09-27T01:07:36.199Z,10.83
2018-09-27T01:10:05.340Z,11.43
2018-09-27T01:12:34.309Z,11.27
2018-09-27T01:15:03.215Z,10.87
2018-09-27T01:17:32.201Z,11.47
2018-09-27T01:20:01.237Z,11.23
2018-09-27T01:22:30.185Z,10.23
2018-09-27T01:24:59.201Z,11.07
2018-09-27T01:27:28.210Z,10.27
2018-09-27T01:29:57.276Z,10.97
2018-09-27T01:32:26.277Z,9.17
2018-09-27T01:34:55.227Z,10.13
2018-09-27T01:37:24.225Z,10.50
2018-09-27T01:39:53.653Z,10.23
2018-09-27T01:42:22.662Z,10.40
2018-09-27T01:44:51.697Z,9.50
2018-09-27T01:47:20.695Z,9.93
2018-09-27T01:49:49.739Z,9.40
2018-09-27T01:52:18.718Z,9.50
2018-09-27T01:54:47.803Z,9.20
2018-09-27T01:57:16.791Z,10.10
2018-09-27T01:59:45.819Z,9.67
2018-09-27T02:02:14.811Z,8.57
2018-09-27T02:04:43.817Z,9.17
2018-09-27T02:07:12.790Z,9.70
2018-09-27T02:09:41.843Z,9.07
2018-09-27T02:12:10.789Z,9.10
2018-09-27T02:14:39.737Z,9.70
2018-09-27T02:17:08.815Z,9.00
2018-09-27T02:19:37.769Z,9.43
2018-09-27T02:22:06.726Z,10.13
2018-09-27T02:24:36.657Z,10.37
2018-09-27T02:27:05.623Z,10.10
2018-09-27T02:29:34.915Z,10.93
2018-09-27T02:32:04.859Z,11.63
2018-09-27T02:34:33.835Z,13.00
2018-09-27T02:37:02.835Z,12.90
2018-09-27T02:39:31.803Z,12.70
2018-09-27T02:42:00.864Z,13.07
2018-09-27T02:44:29.854Z,13.30
2018-09-27T02:46:59.840Z,12.33
2018-09-27T02:49:29.935Z,13.17
2018-09-27T02:51:59.017Z,12.93
2018-09-27T02:54:28.007Z,13.43
2018-09-27T02:56:57.039Z,13.03
2018-09-27T02:59:26.051Z,13.20
2018-09-27T03:01:55.161Z,13.20
2018-09-27T03:04:24.181Z,13.93
2018-09-27T03:06:53.297Z,13.47
2018-09-27T03:09:22.288Z,13.30
2018-09-27T03:11:53.352Z,14.83
2018-09-27T03:14:22.296Z,12.93
2018-09-27T03:16:51.209Z,13.13
2018-09-27T03:19:25.632Z,13.23
2018-09-27T03:21:54.583Z,13.17
2018-09-27T03:24:23.549Z,14.13
2018-09-27T03:26:52.630Z,12.40
2018-09-27T03:29:21.559Z,12.57
2018-09-27T03:31:50.474Z,11.97
2018-09-27T03:34:19.458Z,13.07
2018-09-27T03:36:48.381Z,13.97
2018-09-27T03:39:17.299Z,13.17
2018-09-27T03:41:46.235Z,13.20
2018-09-27T03:44:15.121Z,14.27
2018-09-27T03:46:44.042Z,12.67
2018-09-27T03:49:12.989Z,13.13
2018-09-27T03:51:41.900Z,14.47
2018-09-27T03:54:10.994Z,14.23
2018-09-27T03:56:40.050Z,14.67
2018-09-27T03:59:09.075Z,13.33
2018-09-27T04:01:38.116Z,14.70
2018-09-27T04:04:07.003Z,15.43
2018-09-27T04:07:38.947Z,14.73
2018-09-27T04:10:07.992Z,13.80
2018-09-27T04:12:37.160Z,13.83
2018-09-27T04:15:06.515Z,14.23
2018-09-27T04:17:35.668Z,14.47
2018-09-27T04:20:04.836Z,12.73
2018-09-27T04:22:33.775Z,12.53
2018-09-27T04:25:02.763Z,12.93
2018-09-27T04:27:31.779Z,12.47
2018-09-27T04:30:00.695Z,11.97
2018-09-27T04:32:30.002Z,12.43
2018-09-27T04:34:59.167Z,11.87
2018-09-27T04:37:28.161Z,11.90
2018-09-27T04:39:57.097Z,11.77
2018-09-27T04:42:26.161Z,11.97
2018-09-27T04:44:55.134Z,10.97
2018-09-27T04:47:24.046Z,11.43
2018-09-27T04:49:53.176Z,12.53
2018-09-27T04:52:22.159Z,12.40
2018-09-27T04:54:51.140Z,10.73
2018-09-27T04:57:20.267Z,11.43
2018-09-27T04:59:49.935Z,12.80
2018-09-27T05:02:19.036Z,10.93
2018-09-27T05:04:48.117Z,11.97
2018-09-27T05:07:17.206Z,11.60
2018-09-27T05:09:46.196Z,11.80
2018-09-27T05:12:15.152Z,11.27
2018-09-27T05:14:44.082Z,12.43
2018-09-27T05:17:12.972Z,11.53
2018-09-27T05:19:41.949Z,11.30
2018-09-27T05:22:10.891Z,11.70
2018-09-27T05:24:39.869Z,11.27
2018-09-27T05:27:09.152Z,10.57
2018-09-27T05:29:39.182Z,11.00
2018-09-27T05:32:08.094Z,12.43
2018-09-27T05:34:37.072Z,10.67
2018-09-27T05:37:06.078Z,11.40
2018-09-27T05:39:35.052Z,12.37
2018-09-27T05:42:03.918Z,11.00
2018-09-27T05:44:32.852Z,11.20
2018-09-27T05:47:01.839Z,12.53
2018-09-27T05:49:30.796Z,12.37
2018-09-27T05:51:59.720Z,11.30
2018-09-27T05:54:28.660Z,12.07
2018-09-27T05:56:57.641Z,12.80
2018-09-27T05:59:26.593Z,12.37
2018-09-27T06:01:55.636Z,12.87
2018-09-27T06:04:24.590Z,12.43
2018-09-27T06:06:53.574Z,13.80
2018-09-27T06:09:22.556Z,13.80
2018-09-27T06:11:51.499Z,13.03
2018-09-27T06:14:20.472Z,13.30
2018-09-27T06:16:49.416Z,12.50
2018-09-27T06:19:18.383Z,12.83
2018-09-27T06:21:47.323Z,12.33
2018-09-27T06:24:16.204Z,12.00
2018-09-27T06:26:45.115Z,11.70
2018-09-27T06:29:14.515Z,11.57
2018-09-27T06:31:43.492Z,11.90
2018-09-27T06:34:12.384Z,11.93
2018-09-27T06:36:42.274Z,12.33
2018-09-27T06:39:11.696Z,12.47
2018-09-27T06:41:40.772Z,12.50
2018-09-27T06:44:09.761Z,12.13
2018-09-27T06:46:38.736Z,12.13
2018-09-27T06:49:07.822Z,11.60
2018-09-27T06:51:36.753Z,11.77
2018-09-27T06:54:05.704Z,11.20
2018-09-27T06:56:34.701Z,11.17
2018-09-27T06:59:03.624Z,11.80
2018-09-27T07:01:38.288Z,12.30
2018-09-27T07:04:07.316Z,11.37
2018-09-27T07:06:36.223Z,12.60
2018-09-27T07:09:08.380Z,12.47
2018-09-27T07:11:38.380Z,11.80
2018-09-27T07:14:07.844Z,12.80
2018-09-27T07:16:37.040Z,11.87
2018-09-27T07:19:08.409Z,14.43
2018-09-27T07:21:37.466Z,13.83
2018-09-27T07:24:06.344Z,15.43
2018-09-27T07:26:35.249Z,12.93
2018-09-27T07:29:04.183Z,12.60
2018-09-27T07:31:35.216Z,11.77
2018-09-27T07:34:04.197Z,12.33
2018-09-27T07:36:33.166Z,12.30
2018-09-27T07:39:03.168Z,12.07
2018-09-27T07:41:32.098Z,11.17
2018-09-27T07:44:01.094Z,10.33
2018-09-27T07:46:31.506Z,10.30
2018-09-27T07:49:00.546Z,11.43
2018-09-27T07:51:35.249Z,11.57
2018-09-27T07:54:09.708Z,11.53
2018-09-27T07:56:38.703Z,10.23
2018-09-27T07:59:07.619Z,9.90
2018-09-27T08:01:37.560Z,10.47
2018-09-27T08:04:07.134Z,10.87
2018-09-27T08:06:36.072Z,10.77
2018-09-27T08:09:07.974Z,9.40
2018-09-27T08:11:42.035Z,9.87
2018-09-27T08:14:10.876Z,9.77
2018-09-27T08:16:39.830Z,10.50
2018-09-27T08:19:08.810Z,9.93
2018-09-27T08:21:37.709Z,10.20
2018-09-27T08:24:06.657Z,10.23
2018-09-27T08:26:35.614Z,9.33
2018-09-27T08:29:04.590Z,9.97
2018-09-27T08:31:33.544Z,10.33
2018-09-27T08:34:02.499Z,9.37
2018-09-27T08:36:32.001Z,9.53
2018-09-27T08:39:07.974Z,10.10
2018-09-27T08:41:37.133Z,10.03
2018-09-27T08:44:06.171Z,9.37
2018-09-27T08:46:35.144Z,9.53
2018-09-27T08:49:04.377Z,9.20
2018-09-27T08:51:33.315Z,9.03
2018-09-27T08:54:02.356Z,8.50
2018-09-27T08:56:31.349Z,8.87
2018-09-27T08:59:00.346Z,9.57
2018-09-27T09:01:29.579Z,9.03
2018-09-27T09:03:58.704Z,9.17
2018-09-27T09:06:27.582Z,8.03
2018-09-27T09:08:57.188Z,8.03
2018-09-27T09:11:26.125Z,8.70
2018-09-27T09:13:55.064Z,7.97
2018-09-27T09:16:23.945Z,8.17
2018-09-27T09:18:52.875Z,7.87
2018-09-27T09:21:21.874Z,7.20
2018-09-27T09:23:50.806Z,7.50
2018-09-27T09:26:19.847Z,8.17
2018-09-27T09:28:48.904Z,7.60
2018-09-27T09:31:17.853Z,8.80
2018-09-27T09:33:46.846Z,7.83
2018-09-27T09:36:15.812Z,8.13
2018-09-27T09:38:44.848Z,8.17
2018-09-27T09:41:13.820Z,8.73
2018-09-27T09:43:42.727Z,7.43
2018-09-27T09:46:11.822Z,7.87
2018-09-27T09:48:41.886Z,7.27
2018-09-27T09:51:11.922Z,8.27
2018-09-27T09:53:41.031Z,7.83
2018-09-27T09:56:10.150Z,7.60
2018-09-27T09:58:39.104Z,6.83
2018-09-27T10:01:08.136Z,7.80
2018-09-27T10:03:37.061Z,7.30
2018-09-27T10:06:06.036Z,7.93
2018-09-27T10:08:35.029Z,7.73
2018-09-27T10:11:04.230Z,8.30
2018-09-27T10:13:33.376Z,7.40
2018-09-27T10:16:02.318Z,6.80
2018-09-27T10:18:31.258Z,6.47
2018-09-27T10:21:00.340Z,7.57
2018-09-27T10:23:29.312Z,6.37
2018-09-27T10:25:58.294Z,6.00
2018-09-27T10:28:27.245Z,6.27
2018-09-27T10:30:56.138Z,5.53
2018-09-27T10:33:25.048Z,5.30
2018-09-27T10:35:54.090Z,6.00
2018-09-27T10:38:23.054Z,6.53
2018-09-27T10:40:51.973Z,5.97
2018-09-27T10:43:20.950Z,5.80
2018-09-27T10:45:51.698Z,5.50
2018-09-27T10:48:21.570Z,6.43
2018-09-27T10:50:51.757Z,5.67
2018-09-27T10:53:24.039Z,6.20
2018-09-27T10:55:54.411Z,6.23
2018-09-27T10:58:23.715Z,6.23
2018-09-27T11:00:53.679Z,7.20
2018-09-27T11:03:22.607Z,6.87
2018-09-27T11:05:51.632Z,7.17
2018-09-27T11:08:20.700Z,6.77
2018-09-27T11:10:49.723Z,7.17
2018-09-27T11:13:18.610Z,7.87
2018-09-27T11:15:47.620Z,7.43
2018-09-27T11:18:16.565Z,5.37
2018-09-27T11:20:45.489Z,5.93
2018-09-27T11:23:14.410Z,6.10
2018-09-27T11:25:44.483Z,6.67
2018-09-27T11:28:13.380Z,6.20
2018-09-27T11:30:42.339Z,6.33
2018-09-27T11:33:11.349Z,7.70
2018-09-27T11:35:40.243Z,7.20
2018-09-27T11:38:09.211Z,8.07
2018-09-27T11:40:38.095Z,6.53
2018-09-27T11:43:07.146Z,7.50
2018-09-27T11:45:36.047Z,6.33
2018-09-27T11:48:05.057Z,5.97
2018-09-27T11:50:33.980Z,5.27
2018-09-27T11:53:02.888Z,5.40
2018-09-27T11:55:31.951Z,5.40
2018-09-27T11:58:00.934Z,5.57
2018-09-27T12:00:29.981Z,5.40
2018-09-27T12:02:58.916Z,5.50
2018-09-27T12:05:27.825Z,6.17
2018-09-27T12:07:56.839Z,6.03
2018-09-27T12:10:25.818Z,7.13
2018-09-27T12:12:54.898Z,6.73
2018-09-27T12:15:23.954Z,6.30
2018-09-27T12:17:52.929Z,6.53
2018-09-27T12:20:21.962Z,7.37
2018-09-27T12:22:51.089Z,7.50
2018-09-27T12:25:19.963Z,7.47
2018-09-27T12:27:49.547Z,6.70
2018-09-27T12:30:18.557Z,5.93
2018-09-27T12:32:47.483Z,5.70
2018-09-27T12:35:16.426Z,5.30
2018-09-27T12:37:45.463Z,5.83
2018-09-27T12:40:14.466Z,5.73
2018-09-27T12:42:43.505Z,6.40
2018-09-27T12:45:12.621Z,6.20
2018-09-27T12:47:41.559Z,6.33
2018-09-27T12:50:10.475Z,6.20
2018-09-27T12:52:39.488Z,6.30
2018-09-27T12:55:08.341Z,7.20
2018-09-27T12:57:37.269Z,6.20
2018-09-27T13:00:06.188Z,7.50
2018-09-27T13:02:37.206Z,6.43
2018-09-27T13:05:06.071Z,7.43
2018-09-27T13:07:34.981Z,6.83
2018-09-27T13:10:04.077Z,7.63
2018-09-27T13:12:32.969Z,8.03
2018-09-27T13:15:01.929Z,7.80
2018-09-27T13:17:30.917Z,6.93
2018-09-27T13:19:59.905Z,6.77
2018-09-27T13:22:28.737Z,5.87
2018-09-27T13:24:57.768Z,5.97
2018-09-27T13:27:26.592Z,6.10
2018-09-27T13:29:55.575Z,6.77
2018-09-27T13:32:24.464Z,5.97
2018-09-27T13:34:53.382Z,6.63
2018-09-27T13:37:22.342Z,6.23
2018-09-27T13:39:51.285Z,7.37
2018-09-27T13:42:20.378Z,6.67
2018-09-27T13:44:49.239Z,7.00
2018-09-27T13:47:20.287Z,8.20
2018-09-27T13:49:49.523Z,8.53
2018-09-27T13:52:18.544Z,7.73
2018-09-27T13:54:47.432Z,9.80
2018-09-27T13:57:16.392Z,8.57
2018-09-27T13:59:45.248Z,8.60
2018-09-27T14:02:14.135Z,8.50
2018-09-27T14:04:43.048Z,8.87
2018-09-27T14:07:11.943Z,8.00
2018-09-27T14:09:40.869Z,7.67
2018-09-27T14:12:09.759Z,8.33
2018-09-27T14:14:38.828Z,7.70
2018-09-27T14:17:07.666Z,7.20
2018-09-27T14:19:36.716Z,8.97
2018-09-27T14:22:05.649Z,7.50
2018-09-27T14:24:34.621Z,8.67
2018-09-27T14:27:03.670Z,9.03
2018-09-27T14:29:32.686Z,9.47
2018-09-27T14:32:01.733Z,9.80
2018-09-27T14:34:30.562Z,9.50
2018-09-27T14:36:59.456Z,10.13
2018-09-27T14:39:28.516Z,9.93
2018-09-27T14:41:57.420Z,9.87
2018-09-27T14:44:26.348Z,10.30
2018-09-27T14:46:55.360Z,10.00
2018-09-27T14:49:24.362Z,12.33
2018-09-27T14:51:53.285Z,11.30
2018-09-27T14:54:22.305Z,11.73
2018-09-27T14:56:52.521Z,11.77
2018-09-27T14:59:21.649Z,12.30
2018-09-27T15:01:50.647Z,12.77
2018-09-27T15:04:19.677Z,12.73
2018-09-27T15:06:48.666Z,13.40
2018-09-27T15:09:18.716Z,12.30
2018-09-27T15:11:48.701Z,10.67
2018-09-27T15:14:17.758Z,8.70
2018-09-27T15:16:49.910Z,9.03
2018-09-27T15:19:18.809Z,7.80
2018-09-27T15:21:47.705Z,8.53
2018-09-27T15:24:16.608Z,8.53
2018-09-27T15:26:45.629Z,8.60
2018-09-27T15:29:14.595Z,9.30
2018-09-27T15:31:43.625Z,9.60
2018-09-27T15:34:12.524Z,10.43
2018-09-27T15:36:41.583Z,10.17
2018-09-27T15:39:10.512Z,12.37
2018-09-27T15:41:39.416Z,11.53
2018-09-27T15:44:08.438Z,12.10
2018-09-27T15:46:37.384Z,12.37
2018-09-27T15:49:06.353Z,12.03
2018-09-27T15:51:35.243Z,13.27
2018-09-27T15:54:04.165Z,13.23
2018-09-27T15:56:33.101Z,14.53
2018-09-27T15:59:02.043Z,13.77
2018-09-27T16:01:31.034Z,12.77
2018-09-27T16:04:00.032Z,13.13
2018-09-27T16:06:29.188Z,13.83
2018-09-27T16:08:58.240Z,13.67
2018-09-27T16:11:27.183Z,13.73
2018-09-27T16:13:56.243Z,13.90
2018-09-27T16:16:25.465Z,14.80
2018-09-27T16:18:55.737Z,15.13
2018-09-27T16:21:24.686Z,14.17
2018-09-27T16:23:53.642Z,14.27
2018-09-27T16:26:22.560Z,13.43
2018-09-27T16:28:51.670Z,14.70
2018-09-27T16:31:20.828Z,13.17
2018-09-27T16:33:52.025Z,14.67
2018-09-27T16:36:21.130Z,12.97
2018-09-27T16:38:50.094Z,12.77
2018-09-27T16:41:19.025Z,12.47
2018-09-27T16:43:48.338Z,10.17
2018-09-27T16:46:17.767Z,8.97
2018-09-27T16:48:46.799Z,7.90
2018-09-27T16:51:15.717Z,7.47
2018-09-27T16:53:44.718Z,7.87
2018-09-27T16:56:13.611Z,7.40
2018-09-27T16:58:42.556Z,6.90
2018-09-27T17:01:11.453Z,6.90
2018-09-27T17:03:42.399Z,6.53
2018-09-27T17:06:11.285Z,5.93
2018-09-27T17:08:40.210Z,5.87
2018-09-27T17:11:09.237Z,6.30
2018-09-27T17:13:38.131Z,7.10
2018-09-27T17:16:07.135Z,6.57
2018-09-27T17:18:37.582Z,7.00
2018-09-27T17:21:06.568Z,7.20
2018-09-27T17:23:35.642Z,6.70
2018-09-27T17:26:04.513Z,6.43
2018-09-27T17:28:33.413Z,4.93
2018-09-27T17:31:02.294Z,5.00
2018-09-27T17:33:31.187Z,4.27
2018-09-27T17:36:06.282Z,3.83
2018-09-27T17:38:38.746Z,3.83
2018-09-27T17:41:07.848Z,3.70
2018-09-27T17:43:37.620Z,4.57
2018-09-27T17:46:06.536Z,3.80
2018-09-27T17:48:35.552Z,3.93
2018-09-27T17:51:04.432Z,4.43
2018-09-27T17:53:33.495Z,4.30
2018-09-27T17:56:02.244Z,4.10
2018-09-27T17:58:31.192Z,4.40
2018-09-27T18:01:00.182Z,4.37
2018-09-27T18:03:29.059Z,4.20
2018-09-27T18:05:58.987Z,4.47
2018-09-27T18:08:27.932Z,4.87
2018-09-27T18:10:56.816Z,5.07
2018-09-27T18:13:25.905Z,5.40
2018-09-27T18:15:54.763Z,5.33
2018-09-27T18:18:23.632Z,5.20
2018-09-27T18:20:52.573Z,5.30
2018-09-27T18:23:21.481Z,5.83
2018-09-27T18:25:50.431Z,5.27
2018-09-27T18:28:19.291Z,5.23
2018-09-27T18:30:48.214Z,5.97
2018-09-27T18:33:17.445Z,6.57
2018-09-27T18:35:46.370Z,6.67
2018-09-27T18:38:15.278Z,6.50
2018-09-27T18:40:44.145Z,6.03
2018-09-27T18:43:13.093Z,6.73
2018-09-27T18:45:41.912Z,6.60
2018-09-27T18:48:10.827Z,6.83
2018-09-27T18:50:39.692Z,7.13
2018-09-27T18:53:09.636Z,8.03
2018-09-27T18:55:38.523Z,7.70
2018-09-27T18:58:07.454Z,7.77
2018-09-27T19:00:36.298Z,8.27
2018-09-27T19:03:05.235Z,7.67
2018-09-27T19:05:34.192Z,8.73
2018-09-27T19:08:03.108Z,9.03
2018-09-27T19:10:32.092Z,8.90
2018-09-27T19:13:00.984Z,8.53
2018-09-27T19:15:29.880Z,9.40
2018-09-27T19:17:58.882Z,8.97
2018-09-27T19:20:27.887Z,8.50
2018-09-27T19:22:56.733Z,8.87
2018-09-27T19:25:25.617Z,8.43
2018-09-27T19:27:54.505Z,7.20
2018-09-27T19:30:23.553Z,8.13
2018-09-27T19:32:52.430Z,8.10
2018-09-27T19:35:21.301Z,8.03
2018-09-27T19:37:50.305Z,7.80
2018-09-27T19:40:19.173Z,6.83
2018-09-27T19:42:48.075Z,7.17
2018-09-27T19:45:17.032Z,8.00
2018-09-27T19:47:45.937Z,7.97
2018-09-27T19:50:14.919Z,7.67
2018-09-27T19:52:43.802Z,7.83
2018-09-27T19:55:12.796Z,7.03
2018-09-27T19:57:41.769Z,7.20
2018-09-27T20:00:10.686Z,7.00
2018-09-27T20:02:39.616Z,6.97
2018-09-27T20:05:08.498Z,7.30
2018-09-27T20:07:37.390Z,6.83
2018-09-27T20:10:06.375Z,6.77
2018-09-27T20:12:35.217Z,6.33
2018-09-27T20:15:04.144Z,7.20
2018-09-27T20:17:33.039Z,7.13
2018-09-27T20:20:01.924Z,6.53
2018-09-27T20:22:30.851Z,6.47
2018-09-27T20:24:59.716Z,6.73
2018-09-27T20:27:28.673Z,6.90
2018-09-27T20:29:57.584Z,8.53
2018-09-27T20:32:26.486Z,7.33
2018-09-27T20:34:55.426Z,7.43
2018-09-27T20:37:24.267Z,7.27
2018-09-27T20:39:53.219Z,7.50
2018-09-27T20:42:22.100Z,7.63
2018-09-27T20:44:51.002Z,8.27
2018-09-27T20:47:19.912Z,7.60
2018-09-27T20:49:48.862Z,7.90
2018-09-27T20:52:17.746Z,7.77
2018-09-27T20:54:47.014Z,7.60
2018-09-27T20:57:15.910Z,7.07
2018-09-27T20:59:44.857Z,8.23
2018-09-27T21:02:13.766Z,7.63
2018-09-27T21:04:42.673Z,7.57
2018-09-27T21:07:11.562Z,7.83
2018-09-27T21:09:40.474Z,8.23
2018-09-27T21:12:09.425Z,8.77
2018-09-27T21:14:38.324Z,8.70
2018-09-27T21:17:07.272Z,8.53
2018-09-27T21:19:36.145Z,9.17
2018-09-27T21:22:05.053Z,7.83
2018-09-27T21:24:33.948Z,8.00
2018-09-27T21:27:02.856Z,8.47
2018-09-27T21:29:31.756Z,8.83
2018-09-27T21:32:00.666Z,8.97
2018-09-27T21:34:29.536Z,8.27
2018-09-27T21:36:58.416Z,9.10
2018-09-27T21:39:27.311Z,8.73
2018-09-27T21:41:56.199Z,8.83
2018-09-27T21:44:25.116Z,9.87
2018-09-27T21:46:54.040Z,9.67
2018-09-27T21:49:23.134Z,9.03
2018-09-27T21:51:52.041Z,9.00
2018-09-27T21:54:20.919Z,9.97
2018-09-27T21:56:49.867Z,10.40
2018-09-27T21:59:18.731Z,9.77
2018-09-27T22:01:47.648Z,9.67
2018-09-27T22:04:16.522Z,9.97
2018-09-27T22:06:46.342Z,9.97
2018-09-27T22:09:15.276Z,9.80
2018-09-27T22:11:44.146Z,9.33
2018-09-27T22:14:13.060Z,9.80
2018-09-27T22:16:41.945Z,9.77
2018-09-27T22:19:10.837Z,10.67
2018-09-27T22:21:39.807Z,10.43
2018-09-27T22:24:08.791Z,11.03
2018-09-27T22:26:37.753Z,10.47
2018-09-27T22:29:06.700Z,10.33
2018-09-27T22:31:35.577Z,11.43
2018-09-27T22:34:04.786Z,11.00
2018-09-27T22:36:33.697Z,11.47
2018-09-27T22:39:02.583Z,11.93
2018-09-27T22:41:34.413Z,10.87
2018-09-27T22:44:03.312Z,10.87
2018-09-27T22:46:32.303Z,11.23
2018-09-27T22:49:01.395Z,11.27
2018-09-27T22:51:30.385Z,11.20
2018-09-27T22:53:59.350Z,11.97
2018-09-27T22:56:28.364Z,11.63
2018-09-27T22:58:57.341Z,12.47
2018-09-27T23:01:26.510Z,12.03
2018-09-27T23:03:55.403Z,12.27
2018-09-27T23:06:24.307Z,11.77
2018-09-27T23:08:54.221Z,11.83
2018-09-27T23:11:23.121Z,11.40
2018-09-27T23:13:52.113Z,11.07
2018-09-27T23:16:21.003Z,12.70
2018-09-27T23:18:49.941Z,11.77
2018-09-27T23:21:19.923Z,10.73
2018-09-27T23:23:48.943Z,12.10
2018-09-27T23:26:17.841Z,11.50
2018-09-27T23:28:46.722Z,11.47
2018-09-27T23:31:15.625Z,12.27
2018-09-27T23:33:44.527Z,11.77
2018-09-27T23:36:14.543Z,12.13
2018-09-27T23:38:43.459Z,12.40
2018-09-27T23:41:13.448Z,12.17
2018-09-27T23:43:46.011Z,12.60
2018-09-27T23:46:18.921Z,13.13
2018-09-27T23:48:53.817Z,13.37
2018-09-27T23:51:27.554Z,11.63
2018-09-27T23:53:58.781Z,12.67
2018-09-27T23:56:27.692Z,13.57
2018-09-27T23:58:56.616Z,12.90
